<?xml version="1.0" encoding="utf-8"?>
<gpx xmlns:xsi="http://www.w3.org/2001/XMLSchema-instance" xmlns:xsd="http://www.w3.org/2001/XMLSchema" version="1.1" creator="Shapelink.com" xmlns="http://www.topografix.com/GPX/1/1" xmlns:gpxtpx="http://www.garmin.com/xmlschemas/TrackPointExtension/v1">
  <metadata>
    <name>Gåing 0.50 km, 2012-03-20</name>
    <desc></desc>
    <author><name>Mikael Blom</name></author> 
    <time>2012-03-20T15:14:05Z</time>
  </metadata>
  <trk>
    <name>Gåing 0.50 km, 2012-03-20</name>
    <trkseg>
      <trkpt lat="59.9801814" lon="17.7389196">
        <ele>0</ele>
        <time>2012-03-20T15:14:05Z</time>
      </trkpt>
      <trkpt lat="59.9801574" lon="17.7390015">
        <ele>0</ele>
        <time>2012-03-20T15:14:06Z</time>
      </trkpt>
      <trkpt lat="59.9804439" lon="17.7387865">
        <ele>28.4962</ele>
        <time>2012-03-20T15:14:10Z</time>
      </trkpt>
      <trkpt lat="59.9806156" lon="17.7387307">
        <ele>47.2418</ele>
        <time>2012-03-20T15:14:13Z</time>
      </trkpt>
      <trkpt lat="59.9805798" lon="17.73874">
        <ele>24.651</ele>
        <time>2012-03-20T15:14:19Z</time>
      </trkpt>
      <trkpt lat="59.9806261" lon="17.7387517">
        <ele>13.1151</ele>
        <time>2012-03-20T15:14:25Z</time>
      </trkpt>
      <trkpt lat="59.9806383" lon="17.7387582">
        <ele>9.75061</ele>
        <time>2012-03-20T15:14:28Z</time>
      </trkpt>
      <trkpt lat="59.9807348" lon="17.7387139">
        <ele>11.1925</ele>
        <time>2012-03-20T15:14:35Z</time>
      </trkpt>
      <trkpt lat="59.9810051" lon="17.7386413">
        <ele>18.4023</ele>
        <time>2012-03-20T15:14:51Z</time>
      </trkpt>
      <trkpt lat="59.9811797" lon="17.7385587">
        <ele>27.5349</ele>
        <time>2012-03-20T15:14:57Z</time>
      </trkpt>
      <trkpt lat="59.9812516" lon="17.7385795">
        <ele>29.4575</ele>
        <time>2012-03-20T15:15:02Z</time>
      </trkpt>
      <trkpt lat="59.981291" lon="17.7385629">
        <ele>28.0155</ele>
        <time>2012-03-20T15:15:07Z</time>
      </trkpt>
      <trkpt lat="59.9813816" lon="17.738514">
        <ele>30.4188</ele>
        <time>2012-03-20T15:15:13Z</time>
      </trkpt>
      <trkpt lat="59.9814571" lon="17.7384597">
        <ele>29.9381</ele>
        <time>2012-03-20T15:15:19Z</time>
      </trkpt>
      <trkpt lat="59.9815855" lon="17.7384347">
        <ele>30.4188</ele>
        <time>2012-03-20T15:15:25Z</time>
      </trkpt>
      <trkpt lat="59.9816277" lon="17.7384006">
        <ele>26.0929</ele>
        <time>2012-03-20T15:15:30Z</time>
      </trkpt>
      <trkpt lat="59.9817024" lon="17.7383789">
        <ele>26.0929</ele>
        <time>2012-03-20T15:15:36Z</time>
      </trkpt>
      <trkpt lat="59.9817469" lon="17.7383748">
        <ele>20.325</ele>
        <time>2012-03-20T15:15:41Z</time>
      </trkpt>
      <trkpt lat="59.9817696" lon="17.7383613">
        <ele>21.2864</ele>
        <time>2012-03-20T15:15:42Z</time>
      </trkpt>
      <trkpt lat="59.9818837" lon="17.7382882">
        <ele>22.2476</ele>
        <time>2012-03-20T15:15:49Z</time>
      </trkpt>
      <trkpt lat="59.9819678" lon="17.7382472">
        <ele>23.209</ele>
        <time>2012-03-20T15:15:53Z</time>
      </trkpt>
      <trkpt lat="59.982154" lon="17.7382037">
        <ele>29.9381</ele>
        <time>2012-03-20T15:16:00Z</time>
      </trkpt>
      <trkpt lat="59.9821778" lon="17.7381949">
        <ele>27.0543</ele>
        <time>2012-03-20T15:16:04Z</time>
      </trkpt>
      <trkpt lat="59.9822173" lon="17.7381681">
        <ele>26.5736</ele>
        <time>2012-03-20T15:16:08Z</time>
      </trkpt>
      <trkpt lat="59.9822968" lon="17.7381348">
        <ele>27.0543</ele>
        <time>2012-03-20T15:16:14Z</time>
      </trkpt>
      <trkpt lat="59.9824123" lon="17.7381214">
        <ele>29.4575</ele>
        <time>2012-03-20T15:16:19Z</time>
      </trkpt>
      <trkpt lat="59.982443" lon="17.7381169">
        <ele>26.0929</ele>
        <time>2012-03-20T15:16:23Z</time>
      </trkpt>
      <trkpt lat="59.9825627" lon="17.7381095">
        <ele>28.4962</ele>
        <time>2012-03-20T15:16:29Z</time>
      </trkpt>
      <trkpt lat="59.9825969" lon="17.7381162">
        <ele>26.5736</ele>
        <time>2012-03-20T15:16:32Z</time>
      </trkpt>
      <trkpt lat="59.9826952" lon="17.73814">
        <ele>24.651</ele>
        <time>2012-03-20T15:16:39Z</time>
      </trkpt>
      <trkpt lat="59.9827834" lon="17.7381655">
        <ele>22.2476</ele>
        <time>2012-03-20T15:16:45Z</time>
      </trkpt>
      <trkpt lat="59.9828572" lon="17.7382069">
        <ele>18.4023</ele>
        <time>2012-03-20T15:16:52Z</time>
      </trkpt>
      <trkpt lat="59.9829247" lon="17.738235">
        <ele>14.557</ele>
        <time>2012-03-20T15:16:58Z</time>
      </trkpt>
      <trkpt lat="59.982993" lon="17.7382116">
        <ele>13.5958</ele>
        <time>2012-03-20T15:17:03Z</time>
      </trkpt>
      <trkpt lat="59.9831204" lon="17.7381971">
        <ele>14.557</ele>
        <time>2012-03-20T15:17:09Z</time>
      </trkpt>
      <trkpt lat="59.9833011" lon="17.7381618">
        <ele>16.9604</ele>
        <time>2012-03-20T15:17:17Z</time>
      </trkpt>
      <trkpt lat="59.9833883" lon="17.7381826">
        <ele>15.5184</ele>
        <time>2012-03-20T15:17:22Z</time>
      </trkpt>
      <trkpt lat="59.9834369" lon="17.7381681">
        <ele>15.0377</ele>
        <time>2012-03-20T15:17:25Z</time>
      </trkpt>
    </trkseg>
  </trk>
</gpx>